Time;durP1;ratioP1;P1;durP2;ratioP2;P2;SDS_P1;SDS_P2;PMS_P1;PMS_P2;Temp;Humidity;BMP_temperature;BMP_pressure;BME280_temperature;BME280_humidity;BME280_pressure;Samples;Min_cycle;Max_cycle;Signal;HPM_P1;HPM_P2
2022/05/01 00:01:46;;;;;;;0.00;0.00;;;17.10;99.90;;;;;;5052554;28;20049;-73
2022/05/01 00:04:12;;;;;;;0.00;0.00;;;17.20;99.90;;;;;;5052568;28;20531;-74
2022/05/01 00:06:38;;;;;;;0.00;0.00;;;17.00;99.90;;;;;;5052515;28;20132;-74
2022/05/01 00:09:06;;;;;;;0.00;0.00;;;17.10;99.90;;;;;;5051406;28;20048;-74
2022/05/01 00:11:32;;;;;;;0.00;0.00;;;16.90;99.90;;;;;;5052819;28;20260;-74
2022/05/01 00:13:58;;;;;;;0.00;0.00;;;17.00;99.90;;;;;;5053188;28;20033;-74
2022/05/01 00:16:25;;;;;;;0.00;0.00;;;17.20;99.90;;;;;;5051435;28;20025;-74
2022/05/01 00:18:51;;;;;;;0.00;0.00;;;17.30;99.90;;;;;;5052848;28;20025;-73
2022/05/01 00:21:17;;;;;;;0.05;0.05;;;17.30;97.70;;;;;;5053004;28;20116;-73
2022/05/01 00:23:44;;;;;;;0.00;0.00;;;17.40;99.30;;;;;;5051385;28;20119;-73
2022/05/01 00:26:11;;;;;;;0.00;0.00;;;17.40;99.90;;;;;;5052587;28;20025;-73
2022/05/01 00:28:38;;;;;;;0.00;0.00;;;17.30;99.90;;;;;;5051427;28;20592;-73
2022/05/01 00:31:06;;;;;;;0.00;0.00;;;17.50;99.90;;;;;;5052500;28;20031;-73
2022/05/01 00:36:26;;;;;;;0.00;0.00;;;18.00;96.90;;;;;;5052478;28;20023;-73
2022/05/01 00:39:01;;;;;;;0.00;0.00;;;18.00;96.20;;;;;;5052544;28;20035;-73
2022/05/01 00:41:31;;;;;;;0.00;0.00;;;18.20;94.40;;;;;;5052384;28;20068;-73
2022/05/01 00:44:08;;;;;;;0.20;0.20;;;18.20;97.10;;;;;;5052513;28;20187;-73
2022/05/01 00:46:40;;;;;;;0.00;0.00;;;18.50;96.70;;;;;;5051033;28;20025;-73
2022/05/01 00:49:13;;;;;;;0.00;0.00;;;18.60;98.30;;;;;;5051180;28;20053;-73
2022/05/01 00:51:45;;;;;;;0.00;0.00;;;19.10;96.40;;;;;;5052352;28;20104;-73
2022/05/01 00:54:12;;;;;;;0.00;0.00;;;19.60;91.10;;;;;;5052232;28;20098;-73
2022/05/01 00:56:43;;;;;;;0.00;0.00;;;19.70;87.60;;;;;;5051021;28;20029;-73
2022/05/01 00:59:10;;;;;;;0.00;0.00;;;20.20;87.00;;;;;;5052355;28;20503;-73
2022/05/01 01:01:39;;;;;;;0.00;0.00;;;20.80;84.10;;;;;;5052525;28;20021;-73
2022/05/01 01:04:05;;;;;;;0.00;0.00;;;21.20;75.20;;;;;;5050965;28;20086;-73
2022/05/01 01:06:32;;;;;;;0.28;0.28;;;21.70;71.90;;;;;;5051565;28;20104;-73
2022/05/01 01:08:59;;;;;;;2.70;2.50;;;22.00;64.10;;;;;;5051687;28;20024;-73
2022/05/01 01:11:25;;;;;;;0.00;0.00;;;22.10;60.70;;;;;;5048944;28;20021;-73
2022/05/01 01:13:51;;;;;;;0.00;0.00;;;22.30;58.50;;;;;;5050416;28;20021;-73
2022/05/01 01:16:17;;;;;;;0.00;0.00;;;22.60;58.10;;;;;;5051882;28;20021;-73
2022/05/01 01:18:45;;;;;;;0.00;0.00;;;23.00;57.40;;;;;;5051700;28;20017;-73
2022/05/01 01:21:12;;;;;;;1.02;1.02;;;23.40;57.90;;;;;;5049504;28;20017;-72
2022/05/01 01:23:42;;;;;;;0.15;0.15;;;23.70;55.10;;;;;;5054167;28;20029;-72
2022/05/01 01:26:10;;;;;;;15.88;8.40;;;23.40;53.40;;;;;;5055499;28;20119;-72
2022/05/01 01:28:40;;;;;;;1.88;0.63;;;23.20;53.50;;;;;;5054710;28;20021;-72
2022/05/01 01:33:55;;;;;;;7.43;0.25;;;23.20;53.50;;;;;;5058667;28;20099;-71
2022/05/01 01:36:23;;;;;;;0.13;0.10;;;23.20;53.70;;;;;;5056088;28;20035;-72
2022/05/01 01:38:50;;;;;;;0.85;0.15;;;23.40;52.90;;;;;;5054343;28;20489;-72
2022/05/01 01:41:21;;;;;;;2.95;0.73;;;23.50;52.70;;;;;;5055585;28;20029;-72
2022/05/01 01:43:48;;;;;;;0.20;0.20;;;23.40;51.20;;;;;;5055529;28;20135;-72
2022/05/01 01:46:15;;;;;;;3.50;0.20;;;23.50;51.90;;;;;;5047027;28;20033;-71
2022/05/01 01:48:43;;;;;;;1.25;0.10;;;23.80;51.10;;;;;;5041151;28;20025;-73
2022/05/01 01:51:09;;;;;;;1.17;0.65;;;24.20;50.10;;;;;;5042889;28;20017;-72
2022/05/01 01:53:35;;;;;;;0.70;0.63;;;24.50;49.30;;;;;;5037641;28;20045;-72
2022/05/01 01:56:03;;;;;;;3.38;0.20;;;24.70;48.70;;;;;;5035263;28;20079;-72
2022/05/01 01:58:29;;;;;;;1.42;0.57;;;24.80;49.20;;;;;;5035326;28;20021;-71
2022/05/01 02:00:56;;;;;;;1.17;0.77;;;24.60;48.50;;;;;;5035262;28;20075;-72
2022/05/01 02:03:23;;;;;;;3.40;0.70;;;24.80;49.20;;;;;;5035238;28;20021;-72
2022/05/01 02:05:49;;;;;;;0.40;0.30;;;25.20;48.10;;;;;;5033800;28;20025;-73
2022/05/01 02:08:17;;;;;;;4.28;0.95;;;25.10;48.60;;;;;;5035195;28;20079;-73
2022/05/01 02:10:47;;;;;;;0.98;0.98;;;25.10;47.40;;;;;;5035098;28;20021;-73
2022/05/01 02:13:13;;;;;;;2.67;0.90;;;25.50;46.90;;;;;;5033793;28;20116;-73
2022/05/01 02:15:40;;;;;;;5.40;2.25;;;25.20;46.40;;;;;;5033714;28;20497;-69
2022/05/01 02:18:20;;;;;;;6.07;1.63;;;25.00;45.50;;;;;;5034970;28;20025;-70
2022/05/01 02:23:38;;;;;;;3.45;0.90;;;24.90;45.50;;;;;;5046302;28;20468;-71
2022/05/01 02:26:04;;;;;;;3.00;0.68;;;25.20;45.50;;;;;;5037806;28;20484;-71
2022/05/01 02:28:31;;;;;;;2.70;1.13;;;25.50;44.10;;;;;;5038246;28;20131;-70
2022/05/01 02:30:57;;;;;;;0.95;0.68;;;25.30;44.20;;;;;;5054696;28;20021;-70
2022/05/01 02:33:24;;;;;;;2.63;0.40;;;25.10;44.50;;;;;;5053511;28;20074;-70
2022/05/01 02:35:50;;;;;;;0.90;0.55;;;25.10;45.00;;;;;;5053379;28;20023;-70
2022/05/01 02:38:16;;;;;;;0.38;0.38;;;25.00;45.90;;;;;;5053475;28;20029;-69
2022/05/01 02:40:42;;;;;;;1.48;0.80;;;24.90;45.70;;;;;;5053280;28;20025;-69
2022/05/01 02:43:09;;;;;;;3.20;1.50;;;25.00;45.90;;;;;;5053126;28;20400;-69
2022/05/01 02:45:35;;;;;;;3.97;1.30;;;24.90;45.90;;;;;;5052915;28;20024;-71
2022/05/01 02:48:01;;;;;;;0.63;0.32;;;25.10;46.60;;;;;;5051435;28;20108;-71
2022/05/01 02:50:27;;;;;;;0.63;0.60;;;25.20;46.60;;;;;;5054266;28;20059;-70
2022/05/01 02:52:54;;;;;;;1.85;1.00;;;25.50;46.30;;;;;;5052810;28;20065;-70
2022/05/01 02:55:21;;;;;;;7.22;2.85;;;25.50;46.40;;;;;;5051625;28;20385;-71
2022/05/01 02:57:47;;;;;;;0.32;0.32;;;25.30;47.00;;;;;;5052799;28;20029;-70
2022/05/01 03:00:17;;;;;;;4.57;2.17;;;25.10;47.90;;;;;;5054003;28;20357;-71
2022/05/01 03:02:48;;;;;;;3.05;0.98;;;25.40;47.20;;;;;;5054060;28;20025;-70
2022/05/01 03:05:15;;;;;;;0.63;0.40;;;25.10;47.00;;;;;;5046477;28;20476;-71
2022/05/01 03:07:41;;;;;;;0.57;0.57;;;25.30;48.30;;;;;;5034407;28;20037;-71
2022/05/01 03:10:08;;;;;;;0.43;0.10;;;26.00;47.70;;;;;;5032664;28;20032;-70
2022/05/01 03:12:37;;;;;;;7.80;1.10;;;26.70;46.60;;;;;;5033947;28;20072;-70
2022/05/01 03:15:08;;;;;;;7.57;0.85;;;26.80;45.30;;;;;;5033846;28;20153;-70
2022/05/01 03:23:04;;;;;;;2.92;1.65;;;25.00;46.90;;;;;;5035610;28;20037;-70
2022/05/01 03:25:30;;;;;;;7.22;0.40;;;25.20;47.80;;;;;;5032354;28;20112;-69
2022/05/01 03:27:56;;;;;;;2.58;1.52;;;25.10;48.10;;;;;;5033557;28;20022;-70
2022/05/01 03:30:23;;;;;;;2.17;1.13;;;25.30;48.50;;;;;;5032348;28;20548;-71
2022/05/01 03:32:50;;;;;;;5.07;2.47;;;25.40;48.60;;;;;;5033571;28;20029;-70
2022/05/01 03:35:17;;;;;;;2.20;0.82;;;25.30;47.40;;;;;;5036548;28;20026;-70
2022/05/01 03:37:43;;;;;;;6.03;2.03;;;25.40;49.10;;;;;;5035172;28;20370;-70
2022/05/01 03:40:14;;;;;;;0.75;0.75;;;25.50;48.80;;;;;;5053382;28;20056;-71
2022/05/01 03:42:40;;;;;;;4.88;1.02;;;25.70;48.80;;;;;;5043193;28;20025;-71
2022/05/01 03:45:06;;;;;;;3.30;1.30;;;25.80;48.50;;;;;;5038051;28;20029;-70
2022/05/01 03:47:33;;;;;;;4.07;0.77;;;25.90;49.20;;;;;;5033036;28;20064;-71
2022/05/01 03:49:59;;;;;;;9.45;1.85;;;25.70;47.70;;;;;;5036490;28;20519;-68
2022/05/01 03:52:26;;;;;;;3.78;0.93;;;25.60;47.00;;;;;;5034088;28;20049;-72
2022/05/01 03:54:52;;;;;;;1.55;1.17;;;25.60;46.60;;;;;;5049620;28;20523;-70
2022/05/01 03:57:18;;;;;;;1.05;0.70;;;25.80;47.00;;;;;;5052971;28;20422;-71
2022/05/01 03:59:46;;;;;;;3.85;1.75;;;26.00;46.70;;;;;;5051547;28;20488;-71
2022/05/01 04:02:15;;;;;;;3.55;3.35;;;26.20;45.80;;;;;;5052936;28;20033;-70
2022/05/01 04:04:47;;;;;;;0.00;0.00;;;26.20;45.80;;;;;;5053003;28;20025;-72
2022/05/01 04:07:14;;;;;;;0.47;0.47;;;26.20;45.70;;;;;;5052853;28;20021;-73
2022/05/01 04:09:40;;;;;;;2.17;1.85;;;26.40;45.30;;;;;;5052906;28;20481;-73
2022/05/01 04:12:06;;;;;;;0.88;0.30;;;26.30;45.80;;;;;;5052738;28;20025;-72
2022/05/01 04:14:33;;;;;;;1.65;0.75;;;26.50;45.90;;;;;;5051333;28;20481;-71
2022/05/01 04:17:00;;;;;;;14.52;2.08;;;26.80;46.20;;;;;;5052749;28;20071;-71
2022/05/01 04:19:26;;;;;;;3.20;0.63;;;26.60;46.10;;;;;;5051298;28;20029;-70
2022/05/01 04:21:53;;;;;;;1.75;0.50;;;26.60;46.90;;;;;;5051371;28;20025;-71
2022/05/01 04:24:19;;;;;;;0.22;0.10;;;26.50;46.20;;;;;;5051448;28;20036;-72
2022/05/01 04:26:45;;;;;;;9.05;6.15;;;26.50;47.10;;;;;;5052512;28;20070;-70
2022/05/01 04:31:55;;;;;;;3.70;1.63;;;27.10;46.40;;;;;;5053159;28;20377;-70
2022/05/01 04:34:21;;;;;;;1.45;1.35;;;27.00;44.90;;;;;;5051224;28;20385;-70
2022/05/01 04:36:47;;;;;;;2.83;1.13;;;26.80;44.90;;;;;;5048200;28;20393;-68
2022/05/01 04:39:13;;;;;;;0.50;0.30;;;26.80;44.60;;;;;;5048715;28;20487;-69
2022/05/01 04:41:39;;;;;;;12.98;1.50;;;26.70;46.60;;;;;;5050687;28;20025;-70
2022/05/01 04:44:06;;;;;;;4.05;1.67;;;26.90;45.90;;;;;;5052020;28;20383;-69
2022/05/01 04:46:32;;;;;;;0.08;0.08;;;27.10;46.70;;;;;;5047106;28;20496;-71
2022/05/01 04:48:59;;;;;;;7.82;3.17;;;27.10;44.50;;;;;;5047359;28;20033;-68
2022/05/01 04:51:26;;;;;;;1.55;0.68;;;27.00;43.30;;;;;;5043277;28;20021;-68
2022/05/01 04:53:52;;;;;;;8.30;3.13;;;27.00;42.50;;;;;;5032391;28;20049;-69
2022/05/01 04:59:03;;;;;;;7.25;1.33;;;27.40;43.40;;;;;;5054791;28;20056;-69
2022/05/01 05:01:29;;;;;;;1.95;0.40;;;27.20;42.70;;;;;;5054064;28;20120;-70
2022/05/01 05:03:55;;;;;;;0.00;0.00;;;27.30;43.60;;;;;;5037515;28;20029;-69
2022/05/01 05:06:23;;;;;;;2.85;0.75;;;27.50;43.10;;;;;;5041980;28;20032;-70
2022/05/01 05:11:33;;;;;;;3.83;1.90;;;27.90;43.00;;;;;;5046822;28;20024;-70
2022/05/01 05:13:59;;;;;;;0.17;0.10;;;27.90;42.60;;;;;;5054252;28;20017;-70
2022/05/01 05:16:27;;;;;;;0.52;0.43;;;27.90;42.70;;;;;;5055809;28;20362;-70
2022/05/01 05:18:53;;;;;;;0.45;0.17;;;28.00;41.60;;;;;;5055566;28;20526;-70
2022/05/01 05:21:19;;;;;;;1.00;0.10;;;28.10;42.40;;;;;;5055481;28;20052;-72
2022/05/01 05:23:45;;;;;;;1.55;1.45;;;28.10;41.00;;;;;;5055187;28;20060;-71
2022/05/01 05:26:11;;;;;;;1.17;0.82;;;28.30;38.70;;;;;;5053339;28;20060;-72
2022/05/01 05:28:37;;;;;;;0.65;0.65;;;28.20;36.90;;;;;;5055786;28;20021;-72
2022/05/01 05:31:04;;;;;;;1.65;1.10;;;28.30;36.20;;;;;;5055651;28;20056;-74
2022/05/01 05:33:32;;;;;;;1.52;0.95;;;28.20;37.90;;;;;;5071842;28;20020;-70
2022/05/01 05:35:58;;;;;;;1.38;1.27;;;28.20;37.20;;;;;;5060925;28;20499;-73
2022/05/01 05:38:24;;;;;;;0.30;0.30;;;28.10;37.70;;;;;;5056000;28;20017;-73
2022/05/01 05:40:50;;;;;;;0.32;0.32;;;28.20;38.30;;;;;;5051372;28;20017;-73
2022/05/01 05:43:16;;;;;;;0.20;0.20;;;28.40;39.80;;;;;;5047966;28;20036;-73
2022/05/01 05:45:42;;;;;;;7.00;2.40;;;28.70;40.00;;;;;;5055007;28;20035;-70
2022/05/01 05:48:08;;;;;;;13.43;1.67;;;28.60;41.40;;;;;;5051980;28;20025;-70
2022/05/01 05:50:34;;;;;;;0.20;0.15;;;28.70;43.10;;;;;;5054405;28;20465;-73
2022/05/01 05:53:00;;;;;;;0.25;0.25;;;28.60;40.80;;;;;;5051567;28;20049;-73
2022/05/01 05:55:27;;;;;;;0.00;0.00;;;28.60;40.10;;;;;;5053649;28;20038;-73
2022/05/01 05:57:53;;;;;;;5.13;1.20;;;28.70;40.20;;;;;;5054968;28;20028;-74
2022/05/01 06:00:19;;;;;;;0.20;0.20;;;28.70;36.40;;;;;;5049446;28;20024;-73
2022/05/01 06:02:45;;;;;;;0.00;0.00;;;28.90;37.00;;;;;;5051548;28;20025;-73
2022/05/01 06:05:11;;;;;;;0.75;0.25;;;28.90;36.40;;;;;;5050145;28;20148;-73
2022/05/01 06:07:37;;;;;;;0.00;0.00;;;29.00;37.40;;;;;;5048440;28;20043;-73
2022/05/01 06:10:04;;;;;;;3.70;3.40;;;28.90;37.60;;;;;;5054649;28;20449;-72
2022/05/01 06:12:30;;;;;;;0.00;0.00;;;28.80;36.80;;;;;;5055198;28;20017;-72
2022/05/01 06:14:56;;;;;;;0.00;0.00;;;29.00;35.90;;;;;;5054622;28;20067;-72
2022/05/01 06:17:22;;;;;;;1.17;1.13;;;29.10;36.40;;;;;;5047641;28;20025;-73
2022/05/01 06:19:48;;;;;;;0.00;0.00;;;29.10;36.90;;;;;;5053338;28;20393;-72
2022/05/01 06:22:14;;;;;;;0.00;0.00;;;29.10;36.90;;;;;;5053186;28;20024;-72
2022/05/01 06:24:40;;;;;;;0.43;0.20;;;28.90;36.70;;;;;;5051618;28;20137;-72
2022/05/01 06:27:07;;;;;;;0.00;0.00;;;28.90;36.00;;;;;;5053725;28;20589;-72
2022/05/01 06:29:33;;;;;;;0.00;0.00;;;29.00;35.50;;;;;;5049064;28;20106;-72
2022/05/01 06:31:59;;;;;;;0.30;0.30;;;28.90;35.90;;;;;;5047614;28;20017;-72
2022/05/01 06:34:25;;;;;;;0.00;0.00;;;29.20;34.60;;;;;;5051512;28;20032;-72
2022/05/01 06:36:53;;;;;;;1.80;0.10;;;29.10;36.20;;;;;;5048803;28;20037;-72
2022/05/01 06:39:19;;;;;;;0.00;0.00;;;29.00;36.50;;;;;;5047155;28;20020;-71
2022/05/01 06:41:45;;;;;;;2.55;1.55;;;29.10;36.50;;;;;;5043948;28;20990;-72
2022/05/01 06:44:11;;;;;;;0.00;0.00;;;29.20;36.30;;;;;;5043496;28;20025;-71
2022/05/01 06:46:37;;;;;;;0.00;0.00;;;29.40;33.90;;;;;;5043521;28;20031;-71
2022/05/01 06:49:03;;;;;;;0.00;0.00;;;29.50;35.00;;;;;;5052727;28;20021;-72
2022/05/01 06:51:29;;;;;;;2.20;0.95;;;29.50;33.60;;;;;;5047634;28;20483;-72
2022/05/01 06:53:55;;;;;;;0.20;0.17;;;29.60;34.60;;;;;;5052990;28;20542;-72
2022/05/01 06:56:21;;;;;;;2.60;0.65;;;29.80;35.00;;;;;;5051048;28;20457;-72
2022/05/01 06:58:47;;;;;;;7.85;1.10;;;29.90;32.70;;;;;;5053863;28;20087;-72
2022/05/01 07:01:13;;;;;;;1.67;1.05;;;29.90;34.20;;;;;;5053803;28;20461;-72
2022/05/01 07:03:41;;;;;;;0.35;0.35;;;29.80;34.60;;;;;;5049709;28;20656;-72
2022/05/01 07:06:07;;;;;;;0.00;0.00;;;29.70;32.70;;;;;;5053697;28;20021;-73
2022/05/01 07:08:33;;;;;;;1.88;1.77;;;29.90;31.60;;;;;;5053261;28;20032;-73
2022/05/01 07:10:59;;;;;;;0.10;0.10;;;29.90;34.10;;;;;;5049233;28;20027;-72
2022/05/01 07:13:25;;;;;;;0.00;0.00;;;29.70;34.10;;;;;;5051067;28;20025;-73
2022/05/01 07:15:51;;;;;;;0.20;0.10;;;29.80;34.20;;;;;;5051625;28;20049;-73
2022/05/01 07:18:17;;;;;;;0.00;0.00;;;30.20;33.70;;;;;;5046307;28;20029;-73
2022/05/01 07:20:45;;;;;;;3.65;1.08;;;30.20;33.10;;;;;;5053067;28;20021;-73
2022/05/01 07:23:11;;;;;;;0.00;0.00;;;30.20;33.60;;;;;;5052158;28;20020;-73
2022/05/01 07:25:37;;;;;;;0.75;0.65;;;30.10;33.10;;;;;;5052245;28;20385;-73
2022/05/01 07:28:04;;;;;;;0.45;0.45;;;30.30;31.20;;;;;;5053589;28;20048;-73
2022/05/01 07:30:30;;;;;;;0.00;0.00;;;30.30;31.60;;;;;;5053575;28;20025;-73
2022/05/01 07:32:56;;;;;;;1.95;1.35;;;30.00;33.20;;;;;;5053513;28;20598;-73
2022/05/01 07:35:22;;;;;;;0.00;0.00;;;30.20;30.90;;;;;;5051498;28;20106;-73
2022/05/01 07:37:48;;;;;;;0.00;0.00;;;30.30;31.70;;;;;;5045171;28;20166;-71
2022/05/01 07:40:14;;;;;;;0.00;0.00;;;30.50;28.80;;;;;;5051688;28;20028;-72
2022/05/01 07:42:41;;;;;;;0.00;0.00;;;30.50;28.80;;;;;;5049269;28;20032;-72
2022/05/01 07:45:08;;;;;;;0.70;0.70;;;30.50;30.30;;;;;;5047113;28;20080;-72
2022/05/01 07:47:35;;;;;;;2.05;1.95;;;30.50;30.00;;;;;;5051504;28;20025;-73
2022/05/01 07:50:01;;;;;;;0.00;0.00;;;30.60;29.60;;;;;;5051211;28;20488;-73
2022/05/01 07:52:27;;;;;;;0.40;0.30;;;30.70;30.80;;;;;;5047992;28;20048;-73
2022/05/01 07:54:53;;;;;;;0.32;0.28;;;30.50;30.00;;;;;;5053057;28;20021;-73
2022/05/01 07:57:20;;;;;;;0.80;0.80;;;30.50;29.90;;;;;;5052900;28;20025;-73
2022/05/01 07:59:46;;;;;;;0.00;0.00;;;30.80;30.20;;;;;;5046626;28;20040;-73
2022/05/01 08:02:12;;;;;;;0.00;0.00;;;31.00;31.90;;;;;;5051595;28;20037;-73
2022/05/01 08:04:38;;;;;;;2.33;0.38;;;31.30;30.30;;;;;;5040284;28;20032;-73
2022/05/01 08:07:05;;;;;;;0.00;0.00;;;31.50;30.00;;;;;;5047834;28;20108;-73
2022/05/01 08:09:31;;;;;;;0.00;0.00;;;31.20;31.20;;;;;;5052685;28;20024;-73
2022/05/01 08:11:57;;;;;;;0.00;0.00;;;31.00;30.40;;;;;;5048053;28;20017;-73
2022/05/01 08:14:24;;;;;;;0.00;0.00;;;30.90;30.90;;;;;;5039125;28;20120;-73
2022/05/01 08:16:51;;;;;;;0.00;0.00;;;31.40;30.00;;;;;;5041295;28;20036;-73
2022/05/01 08:22:02;;;;;;;0.00;0.00;;;31.30;29.90;;;;;;5047594;28;20033;-73
2022/05/01 08:24:28;;;;;;;0.20;0.20;;;31.20;30.10;;;;;;5051153;28;20067;-73
2022/05/01 08:26:54;;;;;;;0.85;0.35;;;31.50;30.20;;;;;;5038919;28;20117;-74
2022/05/01 08:29:20;;;;;;;0.00;0.00;;;31.70;29.50;;;;;;5031538;28;20029;-74
2022/05/01 08:31:46;;;;;;;0.00;0.00;;;31.70;29.50;;;;;;5032982;28;20034;-74
2022/05/01 08:34:13;;;;;;;0.00;0.00;;;31.60;28.90;;;;;;5032790;28;20537;-74
2022/05/01 08:36:39;;;;;;;0.00;0.00;;;31.70;29.00;;;;;;5033739;28;20428;-73
2022/05/01 08:39:06;;;;;;;0.00;0.00;;;31.60;28.70;;;;;;5041495;28;20029;-73
2022/05/01 08:41:33;;;;;;;0.90;0.68;;;31.60;29.60;;;;;;5032617;28;20022;-73
2022/05/01 08:44:00;;;;;;;0.00;0.00;;;31.80;30.00;;;;;;5032632;28;20123;-73
2022/05/01 08:46:42;;;;;;;1.13;0.68;;;31.70;30.40;;;;;;5032434;28;20466;-73
2022/05/01 08:49:10;;;;;;;0.00;0.00;;;31.70;30.00;;;;;;5031358;28;20428;-73
2022/05/01 08:51:40;;;;;;;0.00;0.00;;;31.80;29.60;;;;;;5032594;28;20485;-73
2022/05/01 08:54:12;;;;;;;0.00;0.00;;;31.40;29.40;;;;;;5032337;28;20046;-74
2022/05/01 08:56:42;;;;;;;0.00;0.00;;;31.50;29.80;;;;;;5031289;28;20025;-72
2022/05/01 08:59:14;;;;;;;0.00;0.00;;;31.70;29.50;;;;;;5032554;28;20152;-72
2022/05/01 09:01:42;;;;;;;0.00;0.00;;;32.00;28.90;;;;;;5032487;28;20053;-73
2022/05/01 09:04:12;;;;;;;0.00;0.00;;;31.80;29.00;;;;;;5032661;28;20030;-72
2022/05/01 09:06:42;;;;;;;2.83;2.63;;;31.70;29.60;;;;;;5032674;28;20025;-72
2022/05/01 09:09:10;;;;;;;0.57;0.57;;;31.90;28.40;;;;;;5032338;28;20105;-73
2022/05/01 09:14:24;;;;;;;3.17;1.35;;;31.70;29.50;;;;;;5032376;28;20029;-73
2022/05/01 09:17:18;;;;;;;0.65;0.65;;;31.70;28.80;;;;;;5045430;28;20040;-73
2022/05/01 09:19:53;;;;;;;0.00;0.00;;;31.70;29.70;;;;;;5052321;28;20072;-73
2022/05/01 09:22:21;;;;;;;11.15;9.45;;;31.50;30.30;;;;;;5056342;28;20044;-73
2022/05/01 09:24:52;;;;;;;0.00;0.00;;;31.50;31.80;;;;;;5054286;28;20446;-73
2022/05/01 09:27:27;;;;;;;0.00;0.00;;;31.80;32.60;;;;;;5051633;28;20057;-73
2022/05/01 09:30:10;;;;;;;0.32;0.32;;;31.70;34.50;;;;;;5053184;28;20400;-73
2022/05/01 09:32:38;;;;;;;0.00;0.00;;;31.60;34.70;;;;;;5045869;28;20056;-72
2022/05/01 09:35:11;;;;;;;0.00;0.00;;;31.70;35.90;;;;;;5032035;28;20052;-72
2022/05/01 09:37:37;;;;;;;0.00;0.00;;;31.60;36.70;;;;;;5038032;28;20084;-73
2022/05/01 09:40:04;;;;;;;0.00;0.00;;;31.50;34.40;;;;;;5050515;28;20036;-73
2022/05/01 09:42:34;;;;;;;0.00;0.00;;;31.70;32.40;;;;;;5052471;28;20103;-74
2022/05/01 09:45:15;;;;;;;4.20;1.40;;;31.70;31.50;;;;;;5054505;28;20037;-73
2022/05/01 09:47:43;;;;;;;6.30;3.03;;;31.30;31.50;;;;;;5054233;28;20385;-73
2022/05/01 09:50:11;;;;;;;0.00;0.00;;;31.20;31.60;;;;;;5051667;28;20070;-73
2022/05/01 09:52:57;;;;;;;2.92;1.95;;;31.10;32.20;;;;;;5049172;28;20044;-72
2022/05/01 09:55:25;;;;;;;15.88;14.93;;;31.10;33.70;;;;;;5036882;28;20029;-73
2022/05/01 09:58:09;;;;;;;0.00;0.00;;;31.10;34.40;;;;;;5036290;28;20051;-73
2022/05/01 10:00:41;;;;;;;2.10;1.15;;;31.20;33.80;;;;;;5046187;28;20025;-73
2022/05/01 10:03:31;;;;;;;0.00;0.00;;;31.20;32.80;;;;;;5049561;28;20107;-72
2022/05/01 10:05:59;;;;;;;0.65;0.28;;;31.00;32.20;;;;;;5074144;28;20036;-72
2022/05/01 10:08:26;;;;;;;2.40;1.08;;;31.00;31.20;;;;;;5054941;28;20108;-72
2022/05/01 10:10:59;;;;;;;19.75;10.98;;;31.00;31.40;;;;;;5054370;28;20021;-72
2022/05/01 10:13:27;;;;;;;0.32;0.32;;;30.70;30.80;;;;;;5053931;28;20013;-73
2022/05/01 10:15:53;;;;;;;0.10;0.10;;;30.70;31.80;;;;;;5054683;28;20025;-73
2022/05/01 10:18:21;;;;;;;0.00;0.00;;;30.60;30.90;;;;;;5054615;28;20075;-73
2022/05/01 10:20:48;;;;;;;0.43;0.43;;;30.40;31.00;;;;;;5056939;28;20060;-73
2022/05/01 10:23:16;;;;;;;0.00;0.00;;;30.60;31.90;;;;;;5052438;28;20496;-74
2022/05/01 10:26:13;;;;;;;2.38;2.25;;;30.80;32.20;;;;;;5052611;28;20032;-74
2022/05/01 10:28:51;;;;;;;0.00;0.00;;;31.00;31.90;;;;;;5028522;28;20099;-72
2022/05/01 10:34:29;;;;;;;0.73;0.73;;;30.80;31.30;;;;;;5044945;28;20055;-72
2022/05/01 10:37:03;;;;;;;1.63;1.45;;;30.60;31.40;;;;;;5045949;28;20054;-73
2022/05/01 10:39:34;;;;;;;0.00;0.00;;;30.60;31.90;;;;;;5043045;28;20018;-73
2022/05/01 10:42:01;;;;;;;0.00;0.00;;;30.70;32.40;;;;;;5041092;28;20104;-74
2022/05/01 10:44:30;;;;;;;0.00;0.00;;;30.50;32.40;;;;;;5047057;28;20035;-74
2022/05/01 10:47:05;;;;;;;0.00;0.00;;;30.20;33.00;;;;;;5048784;28;20033;-74
2022/05/01 10:49:37;;;;;;;4.25;2.63;;;30.10;32.50;;;;;;5043883;28;20021;-73
2022/05/01 10:52:23;;;;;;;0.00;0.00;;;30.10;32.00;;;;;;5047896;28;20022;-73
2022/05/01 10:55:01;;;;;;;1.23;1.02;;;30.10;32.90;;;;;;5048864;28;20041;-73
2022/05/01 10:57:27;;;;;;;1.85;1.67;;;30.20;32.10;;;;;;5051401;28;20021;-72
2022/05/01 11:00:07;;;;;;;0.20;0.20;;;30.10;32.90;;;;;;5042712;28;20036;-74
2022/05/01 11:02:46;;;;;;;0.00;0.00;;;30.00;32.40;;;;;;5034491;28;20406;-74
2022/05/01 11:05:45;;;;;;;0.80;0.28;;;30.00;32.50;;;;;;5044916;28;20025;-72
2022/05/01 11:08:15;;;;;;;0.60;0.60;;;30.00;32.70;;;;;;5044344;28;20021;-73
2022/05/01 11:10:43;;;;;;;0.00;0.00;;;29.80;33.00;;;;;;5043104;28;20021;-73
2022/05/01 11:13:14;;;;;;;0.05;0.05;;;29.90;33.10;;;;;;5053840;28;20104;-73
2022/05/01 11:15:49;;;;;;;1.25;0.28;;;30.00;33.10;;;;;;5052115;28;20025;-74
2022/05/01 11:18:26;;;;;;;0.28;0.28;;;29.90;32.10;;;;;;5045497;28;20074;-74
2022/05/01 11:20:52;;;;;;;0.00;0.00;;;29.70;31.80;;;;;;5047628;28;20035;-73
2022/05/01 11:23:33;;;;;;;3.30;3.05;;;29.60;32.30;;;;;;5052664;28;20047;-73
2022/05/01 11:26:13;;;;;;;0.82;0.82;;;29.60;32.70;;;;;;5048893;28;20469;-73
2022/05/01 11:28:45;;;;;;;2.45;2.35;;;29.70;32.70;;;;;;5050765;28;20029;-73
2022/05/01 11:31:39;;;;;;;0.00;0.00;;;29.70;32.50;;;;;;5061310;28;20079;-73
2022/05/01 11:34:17;;;;;;;0.68;0.35;;;29.80;33.20;;;;;;5059082;28;20024;-73
2022/05/01 11:37:13;;;;;;;0.13;0.13;;;30.00;32.50;;;;;;5048693;28;20494;-73
2022/05/01 11:39:50;;;;;;;0.00;0.00;;;29.80;31.70;;;;;;5050400;28;20437;-72
2022/05/01 11:42:35;;;;;;;2.83;2.50;;;29.70;32.30;;;;;;5049696;28;20025;-73
2022/05/01 11:45:04;;;;;;;0.52;0.50;;;29.70;32.10;;;;;;5044503;28;20049;-72
2022/05/01 11:47:34;;;;;;;1.92;1.17;;;29.60;32.00;;;;;;5048292;28;20342;-74
2022/05/01 11:50:02;;;;;;;2.50;1.42;;;29.60;32.80;;;;;;5050418;28;20081;-74
2022/05/01 11:52:28;;;;;;;0.00;0.00;;;29.70;32.10;;;;;;5048337;28;20041;-73
2022/05/01 11:54:59;;;;;;;1.98;1.42;;;29.60;32.80;;;;;;5045710;28;20025;-73
2022/05/01 12:03:11;;;;;;;0.00;0.00;;;29.70;32.90;;;;;;5042490;28;20136;-72
2022/05/01 12:05:46;;;;;;;0.30;0.30;;;29.70;33.20;;;;;;5048139;28;20025;-73
2022/05/01 12:08:13;;;;;;;0.10;0.10;;;29.60;33.60;;;;;;5050760;28;20400;-73
2022/05/01 12:10:44;;;;;;;0.00;0.00;;;29.60;34.00;;;;;;5039399;28;20481;-72
2022/05/01 12:13:17;;;;;;;7.90;5.32;;;29.40;34.10;;;;;;5042780;28;20583;-72
2022/05/01 12:15:44;;;;;;;0.00;0.00;;;29.40;34.60;;;;;;5038906;28;20029;-72
2022/05/01 12:18:10;;;;;;;0.00;0.00;;;29.40;34.90;;;;;;5069833;28;20472;-73
2022/05/01 12:20:37;;;;;;;0.00;0.00;;;29.40;34.50;;;;;;5051009;28;20388;-72
2022/05/01 12:23:03;;;;;;;0.00;0.00;;;29.40;34.40;;;;;;5046048;28;20028;-73
2022/05/01 12:25:30;;;;;;;0.00;0.00;;;29.30;34.60;;;;;;5042696;28;20021;-73
2022/05/01 12:27:57;;;;;;;0.00;0.00;;;29.30;35.30;;;;;;5045466;28;20035;-72
2022/05/01 12:30:25;;;;;;;0.00;0.00;;;29.10;36.30;;;;;;5047339;28;20744;-72
2022/05/01 12:32:55;;;;;;;0.00;0.00;;;29.20;36.40;;;;;;5043468;28;20028;-73
2022/05/01 12:35:21;;;;;;;0.00;0.00;;;29.10;36.30;;;;;;5046993;28;20293;-73
2022/05/01 12:37:49;;;;;;;0.30;0.30;;;29.20;36.10;;;;;;5046609;28;20063;-74
2022/05/01 12:45:53;;;;;;;0.00;0.00;;;29.00;36.40;;;;;;5046460;28;20032;-73
2022/05/01 12:48:21;;;;;;;0.00;0.00;;;29.10;35.70;;;;;;5043114;28;20029;-72
2022/05/01 12:50:51;;;;;;;0.00;0.00;;;29.10;35.70;;;;;;5047352;28;20041;-73
2022/05/01 12:53:26;;;;;;;1.38;0.65;;;29.20;35.70;;;;;;5043442;28;20290;-72
2022/05/01 12:55:53;;;;;;;0.55;0.47;;;28.90;37.50;;;;;;5047165;28;20376;-73
2022/05/01 12:58:35;;;;;;;2.92;2.70;;;28.50;40.00;;;;;;5044331;28;20035;-73
2022/05/01 13:01:04;;;;;;;0.00;0.00;;;28.50;40.80;;;;;;5048358;28;20086;-73
2022/05/01 13:03:39;;;;;;;0.00;0.00;;;28.50;41.80;;;;;;5051843;28;20028;-73
2022/05/01 13:06:10;;;;;;;0.00;0.00;;;28.60;42.50;;;;;;5044655;28;20018;-73
2022/05/01 13:08:40;;;;;;;0.00;0.00;;;28.60;43.00;;;;;;5041391;28;20025;-73
2022/05/01 13:11:28;;;;;;;0.00;0.00;;;28.50;44.00;;;;;;5032072;28;20087;-74
2022/05/01 13:13:58;;;;;;;0.15;0.15;;;28.50;45.20;;;;;;5030635;28;20033;-72
2022/05/01 13:16:33;;;;;;;0.00;0.00;;;28.50;45.80;;;;;;5045406;28;20112;-72
2022/05/01 13:18:59;;;;;;;0.00;0.00;;;28.40;46.10;;;;;;5051946;28;20025;-73
2022/05/01 13:21:27;;;;;;;0.60;0.57;;;28.30;46.80;;;;;;5052037;28;20044;-73
2022/05/01 13:24:06;;;;;;;0.03;0.03;;;28.30;47.50;;;;;;5053044;28;20107;-74
2022/05/01 13:26:37;;;;;;;0.47;0.47;;;28.20;47.80;;;;;;5049601;28;20048;-73
2022/05/01 13:29:08;;;;;;;0.00;0.00;;;28.30;48.30;;;;;;5049963;28;20025;-73
2022/05/01 13:31:43;;;;;;;0.88;0.88;;;28.20;48.90;;;;;;5052451;28;20017;-73
2022/05/01 13:34:09;;;;;;;0.00;0.00;;;28.20;49.70;;;;;;5055627;28;20044;-72
2022/05/01 13:36:37;;;;;;;0.00;0.00;;;28.00;50.60;;;;;;5055547;28;20090;-73